Time;durP1;ratioP1;P1;durP2;ratioP2;P2;SDS_P1;SDS_P2;PMS_P1;PMS_P2;Temp;Humidity;BMP_temperature;BMP_pressure;BME280_temperature;BME280_humidity;BME280_pressure;Samples;Min_cycle;Max_cycle;Signal;HPM_P1;HPM_P2
2022/05/01 00:00:45;;;;;;;;;;;9.30;99.90;;;;;;5028396;28;20326;-59
2022/05/01 00:03:30;;;;;;;;;;;9.10;99.90;;;;;;5031258;28;20012;-60
2022/05/01 00:05:59;;;;;;;;;;;9.10;99.90;;;;;;5029394;28;19928;-58
2022/05/01 00:08:25;;;;;;;;;;;9.10;99.90;;;;;;5030750;28;19916;-59
2022/05/01 00:10:50;;;;;;;;;;;9.00;99.90;;;;;;5029023;28;19913;-57
2022/05/01 00:13:16;;;;;;;;;;;8.90;99.90;;;;;;5028461;28;20290;-59
2022/05/01 00:15:42;;;;;;;;;;;8.80;99.90;;;;;;5030878;28;20019;-58
2022/05/01 00:18:07;;;;;;;;;;;8.80;99.90;;;;;;5030714;28;19920;-60
2022/05/01 00:20:33;;;;;;;;;;;8.70;99.90;;;;;;5029296;28;19999;-61
2022/05/01 00:22:59;;;;;;;;;;;8.60;99.90;;;;;;5030719;28;19963;-60
2022/05/01 00:25:25;;;;;;;;;;;8.50;99.90;;;;;;5030755;28;19917;-61
2022/05/01 00:27:50;;;;;;;;;;;8.50;99.90;;;;;;5031251;28;19909;-60
2022/05/01 00:30:15;;;;;;;;;;;8.40;99.90;;;;;;5031782;28;20019;-61
2022/05/01 00:38:09;;;;;;;;;;;8.30;99.90;;;;;;5033836;28;20038;-58
2022/05/01 00:40:35;;;;;;;;;;;8.20;99.90;;;;;;5028665;28;20007;-60
2022/05/01 00:43:01;;;;;;;;;;;8.10;99.90;;;;;;5028629;28;20367;-60
2022/05/01 00:45:27;;;;;;;;;;;8.10;99.90;;;;;;5026404;28;20130;-59
2022/05/01 00:47:52;;;;;;;;;;;8.00;99.90;;;;;;5028389;28;20485;-61
2022/05/01 00:50:18;;;;;;;;;;;8.00;99.90;;;;;;5028087;28;19913;-59
2022/05/01 00:52:43;;;;;;;;;;;8.00;99.90;;;;;;5027311;28;19909;-60
2022/05/01 00:55:09;;;;;;;;;;;8.00;99.90;;;;;;5029996;28;20299;-61
2022/05/01 00:57:35;;;;;;;;;;;7.90;99.90;;;;;;5030401;28;19995;-58
2022/05/01 01:00:00;;;;;;;;;;;7.90;99.90;;;;;;5027995;28;19909;-60
2022/05/01 01:02:25;;;;;;;;;;;7.80;99.90;;;;;;5025216;28;19916;-57
2022/05/01 01:04:51;;;;;;;;;;;7.80;99.90;;;;;;5027379;28;19916;-61
2022/05/01 01:07:16;;;;;;;;;;;7.70;99.90;;;;;;5027364;28;20393;-61
2022/05/01 01:09:42;;;;;;;;;;;7.60;99.90;;;;;;5026337;28;19913;-60
2022/05/01 01:15:09;;;;;;;;;;;7.40;99.90;;;;;;5033433;28;20432;-60
2022/05/01 01:17:41;;;;;;;;;;;7.40;99.90;;;;;;5031476;28;19915;-60
2022/05/01 01:20:15;;;;;;;;;;;7.30;99.90;;;;;;5025699;28;19909;-60
2022/05/01 01:22:41;;;;;;;;;;;7.20;99.90;;;;;;5027558;28;19915;-60
2022/05/01 01:25:10;;;;;;;;;;;7.20;99.90;;;;;;5028558;28;19908;-59
2022/05/01 01:27:39;;;;;;;;;;;7.20;99.90;;;;;;5029780;28;19919;-59
2022/05/01 01:32:49;;;;;;;;;;;7.10;99.90;;;;;;5032190;28;19916;-58
2022/05/01 01:35:15;;;;;;;;;;;7.00;99.90;;;;;;5030464;28;19913;-60
2022/05/01 01:37:45;;;;;;;;;;;7.00;99.90;;;;;;5029501;28;20382;-60
2022/05/01 01:41:47;;;;;;;124.15;51.75;;;6.90;99.90;;;;;;5059345;28;20382;-60
2022/05/01 01:44:13;;;;;;;222.00;92.80;;;6.90;99.90;;;;;;5038482;28;20017;-57
2022/05/01 07:42:32;;;;;;;29.95;17.83;;;11.10;99.90;;;;;;5058355;28;20353;-61
2022/05/01 07:44:58;;;;;;;37.17;19.42;;;11.20;99.90;;;;;;5059425;28;20022;-57
2022/05/01 07:47:23;;;;;;;31.38;18.45;;;11.30;99.90;;;;;;5034836;28;20410;-59
2022/05/01 07:49:49;;;;;;;32.30;20.25;;;11.40;99.90;;;;;;5043039;28;20032;-59
2022/05/01 07:52:16;;;;;;;33.97;19.38;;;11.50;99.90;;;;;;5033477;28;20120;-56
2022/05/01 07:54:41;;;;;;;34.97;20.17;;;11.50;99.90;;;;;;5040150;28;20531;-57
2022/05/01 07:57:07;;;;;;;27.42;18.88;;;11.50;99.90;;;;;;5035817;28;20040;-59
2022/05/01 07:59:33;;;;;;;29.00;15.70;;;11.60;99.90;;;;;;5036773;28;20017;-58
2022/05/01 08:01:58;;;;;;;31.98;18.83;;;11.80;99.90;;;;;;5040966;28;20480;-56
2022/05/01 08:04:30;;;;;;;26.50;17.00;;;11.90;99.90;;;;;;5036455;28;20515;-59
2022/05/01 08:07:01;;;;;;;28.17;17.08;;;12.00;99.90;;;;;;5039147;28;20075;-60
2022/05/01 08:09:28;;;;;;;28.05;17.60;;;12.10;99.90;;;;;;5035488;28;20491;-58
2022/05/01 08:11:55;;;;;;;33.88;17.27;;;12.20;99.90;;;;;;5038553;28;20794;-58
2022/05/01 08:14:21;;;;;;;28.45;16.08;;;12.40;99.90;;;;;;5040890;28;20033;-58
2022/05/01 08:16:47;;;;;;;27.80;16.80;;;12.60;99.90;;;;;;5040291;28;20124;-59
2022/05/01 08:21:58;;;;;;;21.63;15.85;;;13.00;99.90;;;;;;5035253;28;20424;-60
2022/05/01 08:24:23;;;;;;;26.58;16.17;;;13.10;99.90;;;;;;5037812;28;20041;-60
2022/05/01 08:26:49;;;;;;;30.45;16.83;;;13.00;99.90;;;;;;5039844;28;20024;-60
2022/05/01 08:29:15;;;;;;;24.67;14.52;;;13.00;99.90;;;;;;5039204;28;20029;-59
2022/05/01 08:31:42;;;;;;;21.30;14.93;;;13.20;99.90;;;;;;5039496;28;20021;-59
2022/05/01 08:34:11;;;;;;;21.08;14.02;;;13.30;99.90;;;;;;5040919;28;20041;-56
2022/05/01 08:36:38;;;;;;;23.98;14.65;;;13.30;99.90;;;;;;5062271;22;20043;-61
2022/05/01 08:39:04;;;;;;;22.02;15.63;;;13.40;99.90;;;;;;5063244;28;20099;-60
2022/05/01 08:41:31;;;;;;;21.27;13.63;;;13.60;99.90;;;;;;5063355;28;20052;-60
2022/05/01 08:43:57;;;;;;;23.55;13.88;;;13.70;99.90;;;;;;5064553;28;20033;-61
2022/05/01 08:46:26;;;;;;;19.13;14.15;;;13.90;99.90;;;;;;5068867;28;20431;-60
2022/05/01 08:49:03;;;;;;;20.77;13.95;;;13.90;99.90;;;;;;5063421;28;20514;-60
2022/05/01 08:51:40;;;;;;;17.15;12.45;;;14.00;99.90;;;;;;5062947;28;20043;-60
2022/05/01 08:54:13;;;;;;;21.92;13.55;;;14.20;99.90;;;;;;5046079;28;20527;-61
2022/05/01 08:56:41;;;;;;;24.13;13.98;;;14.10;99.90;;;;;;5047028;28;20039;-60
2022/05/01 08:59:14;;;;;;;21.38;14.68;;;14.10;99.90;;;;;;5050178;28;20021;-59
2022/05/01 09:01:44;;;;;;;21.80;13.97;;;14.10;99.90;;;;;;5048726;28;20106;-60
2022/05/01 09:04:14;;;;;;;21.20;13.80;;;14.20;99.90;;;;;;5049688;28;20052;-57
2022/05/01 09:06:41;;;;;;;26.65;14.25;;;14.20;99.90;;;;;;5046960;28;20025;-59
2022/05/01 09:09:16;;;;;;;20.35;12.65;;;14.20;99.90;;;;;;5049314;28;20037;-59
2022/05/01 09:14:26;;;;;;;23.48;12.77;;;14.40;99.90;;;;;;5051740;28;20005;-60
2022/05/01 09:17:13;;;;;;;20.42;12.95;;;14.40;99.90;;;;;;5048547;28;20089;-61
2022/05/01 09:19:39;;;;;;;14.65;11.02;;;14.50;99.90;;;;;;5047367;28;20028;-61
2022/05/01 09:24:38;;;;;;;20.35;12.45;;;14.80;99.90;;;;;;5092524;27;20334;-60
2022/05/01 09:27:04;;;;;;;23.38;12.88;;;14.80;99.90;;;;;;5099564;28;20043;-58
2022/05/01 09:29:34;;;;;;;17.60;12.00;;;14.90;99.90;;;;;;5096776;28;20367;-58
2022/05/01 09:32:01;;;;;;;18.83;12.05;;;14.90;99.90;;;;;;5091531;28;20358;-58
2022/05/01 09:34:30;;;;;;;22.52;11.65;;;15.10;99.90;;;;;;5090946;28;20024;-60
2022/05/01 09:36:57;;;;;;;21.00;12.65;;;15.20;99.90;;;;;;5096000;28;20038;-58
2022/05/01 09:39:29;;;;;;;19.08;12.60;;;15.50;99.90;;;;;;5095135;28;20089;-60
2022/05/01 09:42:11;;;;;;;18.70;12.30;;;15.70;99.90;;;;;;5091989;28;20036;-59
2022/05/01 09:44:37;;;;;;;25.50;15.77;;;15.90;99.90;;;;;;5093736;28;20878;-58
2022/05/01 09:47:02;;;;;;;42.28;21.42;;;15.90;99.90;;;;;;5093425;28;20092;-60
2022/05/01 09:49:28;;;;;;;18.95;12.05;;;16.00;99.90;;;;;;5088734;28;20030;-58
2022/05/01 09:51:56;;;;;;;21.17;13.00;;;15.90;99.90;;;;;;5099056;28;20101;-60
2022/05/01 09:54:23;;;;;;;19.17;12.38;;;15.70;99.90;;;;;;5097280;28;20107;-60
2022/05/01 09:56:54;;;;;;;18.10;13.40;;;15.40;99.90;;;;;;5092068;28;20126;-60
2022/05/01 09:59:22;;;;;;;19.10;13.23;;;15.20;99.90;;;;;;5094862;28;20028;-60
2022/05/01 10:01:57;;;;;;;17.25;12.95;;;15.20;99.90;;;;;;5088284;28;20028;-60
2022/05/01 10:04:24;;;;;;;20.30;12.73;;;15.40;99.90;;;;;;5095176;28;20025;-60
2022/05/01 10:06:54;;;;;;;24.00;13.90;;;15.70;99.90;;;;;;5094860;28;20320;-59
2022/05/01 10:09:23;;;;;;;21.10;12.95;;;16.00;99.90;;;;;;5093505;28;20497;-60
2022/05/01 10:11:53;;;;;;;16.92;11.02;;;16.30;99.90;;;;;;5095870;28;20029;-60
2022/05/01 10:14:20;;;;;;;11.95;9.30;;;16.50;99.90;;;;;;5097844;28;20048;-60
2022/05/01 10:16:46;;;;;;;12.73;8.50;;;16.60;99.90;;;;;;5092944;28;20077;-60
2022/05/01 10:19:18;;;;;;;12.65;7.88;;;16.50;99.90;;;;;;5097336;28;20512;-60
2022/05/01 10:21:49;;;;;;;14.43;9.32;;;16.50;99.90;;;;;;5087358;28;20483;-60
2022/05/01 10:24:16;;;;;;;14.02;9.60;;;16.50;99.90;;;;;;5099054;27;20398;-60
2022/05/01 10:26:57;;;;;;;18.83;12.32;;;16.40;99.90;;;;;;5090263;28;20250;-61
2022/05/01 10:33:31;;;;;;;14.95;11.52;;;16.40;99.90;;;;;;5098459;28;20450;-58
2022/05/01 10:36:21;;;;;;;16.35;10.98;;;17.00;99.90;;;;;;5078540;28;20020;-59
2022/05/01 10:39:09;;;;;;;20.98;12.07;;;17.20;99.90;;;;;;5075327;28;20090;-60
2022/05/01 10:41:41;;;;;;;19.45;11.40;;;17.40;99.90;;;;;;5075630;28;20425;-58
2022/05/01 10:44:07;;;;;;;21.30;11.88;;;17.60;99.90;;;;;;5079461;28;20100;-58
2022/05/01 10:46:32;;;;;;;24.23;11.32;;;17.40;99.90;;;;;;5077634;28;20028;-59
2022/05/01 10:49:18;;;;;;;20.15;11.43;;;17.20;99.90;;;;;;5083309;28;20543;-58
2022/05/01 10:51:46;;;;;;;24.40;11.98;;;17.10;99.90;;;;;;5076694;28;20028;-59
2022/05/01 10:54:17;;;;;;;21.02;12.10;;;16.80;99.90;;;;;;5075731;28;20829;-59
2022/05/01 10:56:48;;;;;;;17.65;12.88;;;16.60;99.90;;;;;;5082688;28;20032;-59
2022/05/01 10:59:29;;;;;;;20.83;12.98;;;16.70;99.90;;;;;;5077702;28;20056;-58
2022/05/01 11:02:03;;;;;;;23.67;11.52;;;16.90;99.90;;;;;;5079982;28;20032;-59
2022/05/01 11:04:38;;;;;;;17.75;12.93;;;16.60;99.90;;;;;;5076191;28;20070;-59
2022/05/01 11:07:05;;;;;;;18.38;12.20;;;16.40;99.90;;;;;;5080950;28;20042;-61
2022/05/01 11:09:35;;;;;;;19.42;12.13;;;16.30;99.90;;;;;;5081041;28;20024;-60
2022/05/01 11:12:01;;;;;;;21.27;13.23;;;16.40;99.90;;;;;;5082245;28;20605;-59
2022/05/01 11:14:40;;;;;;;19.27;12.43;;;16.50;99.90;;;;;;5079068;28;20067;-59
2022/05/01 11:17:08;;;;;;;22.27;12.05;;;16.30;99.90;;;;;;5085085;28;20074;-60
2022/05/01 11:19:51;;;;;;;23.30;13.23;;;16.40;99.90;;;;;;5074722;28;20027;-60
2022/05/01 11:22:25;;;;;;;18.83;12.60;;;16.40;99.90;;;;;;5076119;28;20024;-60
2022/05/01 11:24:50;;;;;;;18.67;12.15;;;16.40;99.90;;;;;;5081081;28;20508;-60
2022/05/01 11:27:17;;;;;;;18.55;11.88;;;16.20;99.90;;;;;;5080031;28;20034;-60
2022/05/01 11:30:05;;;;;;;22.13;12.23;;;16.20;99.90;;;;;;5091250;28;20028;-61
2022/05/01 11:32:43;;;;;;;21.00;12.27;;;16.20;99.90;;;;;;5076018;28;20036;-60
2022/05/01 11:35:09;;;;;;;20.35;11.63;;;16.10;99.90;;;;;;5077591;28;20501;-61
2022/05/01 11:37:47;;;;;;;16.98;12.23;;;16.10;99.90;;;;;;5072477;28;20029;-61
2022/05/01 11:40:22;;;;;;;16.00;10.80;;;16.00;99.90;;;;;;5080753;28;20028;-61
2022/05/01 11:42:48;;;;;;;18.35;11.90;;;15.90;99.90;;;;;;5076355;28;20492;-61
2022/05/01 11:45:14;;;;;;;15.73;10.85;;;16.00;99.90;;;;;;5076831;28;20021;-59
2022/05/01 11:47:40;;;;;;;16.55;10.80;;;16.30;99.90;;;;;;5074566;28;20012;-61
2022/05/01 11:50:07;;;;;;;21.08;12.10;;;16.60;99.90;;;;;;5076502;28;20035;-61
2022/05/01 11:52:39;;;;;;;14.18;11.30;;;16.80;99.90;;;;;;5072305;28;20082;-61
2022/05/01 11:55:07;;;;;;;17.40;10.43;;;17.00;99.90;;;;;;5074338;28;20030;-61
2022/05/01 12:03:07;;;;;;;12.10;9.65;;;16.70;99.90;;;;;;5080785;28;20054;-60
2022/05/01 12:05:47;;;;;;;16.02;10.00;;;16.70;99.90;;;;;;5077899;28;20024;-59
2022/05/01 12:08:14;;;;;;;17.67;10.68;;;16.90;99.90;;;;;;5071907;28;20025;-61
2022/05/01 12:10:44;;;;;;;18.13;11.00;;;16.80;99.90;;;;;;5074731;28;20044;-61
2022/05/01 12:13:24;;;;;;;14.10;9.80;;;16.80;99.90;;;;;;5084105;28;20418;-60
2022/05/01 12:15:51;;;;;;;18.05;10.73;;;16.80;99.90;;;;;;5089120;28;20028;-61
2022/05/01 12:18:17;;;;;;;18.02;11.27;;;16.70;99.90;;;;;;5100675;28;20065;-61
2022/05/01 12:20:43;;;;;;;17.67;11.38;;;16.60;99.90;;;;;;5093357;28;20081;-60
2022/05/01 12:23:20;;;;;;;15.27;10.52;;;16.60;99.90;;;;;;5089695;28;20073;-58
2022/05/01 12:25:50;;;;;;;17.17;11.52;;;16.60;99.90;;;;;;5077113;28;20063;-59
2022/05/01 12:28:18;;;;;;;15.43;9.98;;;16.70;99.90;;;;;;5079270;28;20020;-57
2022/05/01 12:30:48;;;;;;;15.00;10.40;;;16.90;99.90;;;;;;5084673;28;20028;-59
2022/05/01 12:33:19;;;;;;;19.65;10.65;;;16.90;99.90;;;;;;5080564;28;20154;-59
2022/05/01 12:36:01;;;;;;;18.90;11.18;;;17.00;99.90;;;;;;5084822;28;20020;-60
2022/05/01 12:38:30;;;;;;;13.27;9.82;;;17.20;99.90;;;;;;5086400;28;20032;-57
2022/05/01 12:43:59;;;;;;;13.20;9.75;;;17.20;99.90;;;;;;5071429;28;20485;-56
2022/05/01 12:46:29;;;;;;;16.98;10.57;;;17.00;99.90;;;;;;5079583;28;20032;-58
2022/05/01 12:48:56;;;;;;;13.30;10.30;;;17.10;99.90;;;;;;5074880;28;20436;-56
2022/05/01 12:51:23;;;;;;;13.90;9.68;;;17.20;99.90;;;;;;5070802;28;20032;-58
2022/05/01 12:53:49;;;;;;;13.13;9.50;;;17.30;99.90;;;;;;5074973;28;20436;-55
2022/05/01 12:56:18;;;;;;;14.90;10.10;;;17.30;99.90;;;;;;5080127;28;20150;-58
2022/05/01 12:58:44;;;;;;;16.73;11.57;;;17.50;99.90;;;;;;5085847;28;20058;-59
2022/05/01 13:01:32;;;;;;;21.13;10.60;;;17.30;99.90;;;;;;5082096;28;20117;-59
2022/05/01 13:03:58;;;;;;;19.60;12.02;;;17.20;99.90;;;;;;5072913;28;20035;-58
2022/05/01 13:06:24;;;;;;;16.80;11.80;;;16.90;99.90;;;;;;5070825;28;20021;-56
2022/05/01 13:08:53;;;;;;;14.88;10.65;;;16.80;99.90;;;;;;5071161;28;20017;-59
2022/05/01 13:11:24;;;;;;;17.02;10.65;;;16.80;99.90;;;;;;5073507;28;20515;-57
2022/05/01 13:13:54;;;;;;;16.33;11.05;;;17.00;99.90;;;;;;5085081;28;20032;-55
2022/05/01 13:16:30;;;;;;;15.73;10.35;;;17.20;99.90;;;;;;5077378;28;20028;-58
2022/05/01 13:19:15;;;;;;;18.80;12.23;;;17.20;99.90;;;;;;5071026;28;20109;-57
2022/05/01 13:21:47;;;;;;;15.77;11.23;;;17.30;99.90;;;;;;5084482;28;20032;-57
2022/05/01 13:24:18;;;;;;;16.58;11.20;;;17.10;99.90;;;;;;5090132;28;20032;-58
2022/05/01 13:26:44;;;;;;;20.88;10.68;;;16.80;99.90;;;;;;5082711;28;20101;-59
2022/05/01 13:29:11;;;;;;;20.13;11.88;;;16.70;99.90;;;;;;5081231;28;20566;-59
2022/05/01 13:31:43;;;;;;;18.85;11.57;;;16.70;99.90;;;;;;5075427;28;20066;-56
2022/05/01 13:34:09;;;;;;;17.52;11.98;;;16.70;99.90;;;;;;5076026;28;20024;-59
2022/05/01 13:36:37;;;;;;;22.05;12.20;;;16.60;99.90;;;;;;5070735;28;20399;-58
2022/05/01 13:39:04;;;;;;;16.95;11.38;;;16.50;99.90;;;;;;5077031;28;20017;-59
2022/05/01 13:47:00;;;;;;;18.90;13.35;;;16.30;99.90;;;;;;5085409;28;20035;-59
2022/05/01 13:49:26;;;;;;;15.43;10.88;;;16.30;99.90;;;;;;5090141;28;20024;-57
2022/05/01 13:51:52;;;;;;;19.90;11.02;;;16.20;99.90;;;;;;5089733;28;20032;-58
2022/05/01 13:54:18;;;;;;;17.17;10.57;;;16.30;99.90;;;;;;5086869;28;20132;-57
2022/05/01 13:56:44;;;;;;;15.45;11.77;;;16.40;99.90;;;;;;5075770;28;20067;-58
2022/05/01 13:59:14;;;;;;;20.25;12.35;;;16.40;99.90;;;;;;5079840;28;20048;-58
2022/05/01 14:01:40;;;;;;;14.55;10.60;;;16.40;99.90;;;;;;5076478;28;20048;-57
2022/05/01 14:04:07;;;;;;;19.02;11.88;;;16.40;99.90;;;;;;5078344;28;20036;-61
2022/05/01 14:06:32;;;;;;;18.35;11.68;;;16.40;99.90;;;;;;5074213;28;20048;-60
2022/05/01 14:08:58;;;;;;;18.75;12.13;;;16.50;99.90;;;;;;5075871;28;20066;-59
2022/05/01 14:11:26;;;;;;;16.88;12.07;;;16.60;99.90;;;;;;5083597;28;20044;-58
2022/05/01 14:13:52;;;;;;;19.10;12.48;;;16.70;99.90;;;;;;5080770;28;20024;-59
2022/05/01 14:16:19;;;;;;;21.08;11.98;;;16.80;99.90;;;;;;5082580;28;20028;-60
2022/05/01 14:18:46;;;;;;;17.40;11.65;;;16.70;99.90;;;;;;5073395;28;21011;-57
2022/05/01 14:21:16;;;;;;;21.08;12.32;;;16.90;99.90;;;;;;5083710;28;20097;-61
2022/05/01 14:23:42;;;;;;;19.17;11.68;;;17.10;99.90;;;;;;5075701;28;20458;-59
2022/05/01 14:26:07;;;;;;;17.20;12.23;;;17.10;99.90;;;;;;5081804;28;20025;-60
2022/05/01 14:28:33;;;;;;;18.20;11.32;;;17.10;99.90;;;;;;5080366;28;20028;-59
2022/05/01 14:31:12;;;;;;;17.05;11.32;;;17.00;99.90;;;;;;5081012;28;20131;-60
2022/05/01 14:33:42;;;;;;;14.75;10.13;;;16.90;99.90;;;;;;5079582;28;20111;-60
2022/05/01 14:36:08;;;;;;;14.13;10.30;;;16.70;99.90;;;;;;5079809;28;20567;-59
2022/05/01 14:38:51;;;;;;;15.80;10.70;;;16.60;99.90;;;;;;5088124;28;20031;-59
2022/05/01 14:41:29;;;;;;;14.43;10.55;;;16.60;99.90;;;;;;5088270;28;20040;-59
2022/05/01 14:44:03;;;;;;;15.15;10.80;;;16.60;99.90;;;;;;5078921;28;20032;-59
2022/05/01 14:46:39;;;;;;;19.10;11.60;;;16.50;99.90;;;;;;5079879;28;20032;-60
2022/05/01 14:49:40;;;;;;;17.90;11.00;;;16.60;99.90;;;;;;5079854;28;20409;-59
2022/05/01 14:52:11;;;;;;;17.08;11.48;;;16.70;99.90;;;;;;5059236;28;20089;-58
2022/05/01 14:54:39;;;;;;;14.18;11.02;;;16.70;99.90;;;;;;5078655;28;20039;-58
2022/05/01 14:57:16;;;;;;;16.77;10.82;;;16.70;99.90;;;;;;5078938;28;20090;-59
2022/05/01 15:08:28;;;;;;;17.80;11.18;;;16.50;99.90;;;;;;5081308;28;20289;-58
2022/05/01 15:10:54;;;;;;;17.92;11.05;;;16.50;99.90;;;;;;5082385;28;20494;-58
2022/05/01 15:13:20;;;;;;;15.68;10.70;;;16.50;99.90;;;;;;5089131;28;20104;-58
2022/05/01 15:16:12;;;;;;;16.25;11.35;;;16.50;99.90;;;;;;5081999;28;20050;-59
2022/05/01 15:18:40;;;;;;;16.70;12.27;;;16.50;99.90;;;;;;5081121;28;20047;-58
2022/05/01 15:21:27;;;;;;;20.88;14.25;;;16.60;99.90;;;;;;5077079;28;20032;-57
2022/05/01 15:23:58;;;;;;;18.55;11.57;;;16.60;99.90;;;;;;5086572;28;20119;-58
2022/05/01 15:26:26;;;;;;;22.45;15.88;;;16.50;99.90;;;;;;5075223;28;20028;-59
2022/05/01 15:28:53;;;;;;;19.67;13.80;;;16.30;99.90;;;;;;5084505;28;20024;-58
2022/05/01 15:31:21;;;;;;;24.77;14.30;;;16.40;99.90;;;;;;5071951;28;20016;-58
2022/05/01 15:33:53;;;;;;;18.30;13.50;;;16.30;99.90;;;;;;5084528;28;20455;-57
2022/05/01 15:36:19;;;;;;;23.13;12.40;;;16.30;99.90;;;;;;5072435;28;20026;-55
2022/05/01 15:38:56;;;;;;;22.65;14.23;;;16.30;99.90;;;;;;5081085;28;20493;-58
2022/05/01 15:41:43;;;;;;;16.30;12.48;;;16.40;99.90;;;;;;5079180;28;20047;-57
2022/05/01 15:44:30;;;;;;;19.92;12.02;;;16.30;99.90;;;;;;5085931;28;20028;-56
2022/05/01 15:46:56;;;;;;;24.80;11.43;;;16.20;99.90;;;;;;5078981;28;20451;-59
2022/05/01 15:54:59;;;;;;;20.20;12.35;;;16.40;99.90;;;;;;5083851;28;20097;-58
2022/05/01 15:57:26;;;;;;;17.83;12.23;;;16.20;99.90;;;;;;5084902;28;20028;-59
2022/05/01 15:59:52;;;;;;;15.75;10.25;;;16.10;99.90;;;;;;5083442;28;20410;-58
2022/05/01 16:02:22;;;;;;;20.25;11.40;;;16.00;99.90;;;;;;5083951;28;20056;-58
2022/05/01 16:04:49;;;;;;;21.38;13.65;;;16.00;99.90;;;;;;5083744;28;20094;-58
2022/05/01 16:07:42;;;;;;;19.75;12.23;;;15.90;99.90;;;;;;5089527;28;20028;-58
2022/05/01 16:10:27;;;;;;;19.13;13.45;;;15.90;99.90;;;;;;5081615;22;20055;-65
2022/05/01 16:13:38;;;;;;;26.08;13.82;;;15.80;99.90;;;;;;5065191;28;20179;-64
2022/05/01 16:16:17;;;;;;;17.83;12.93;;;15.80;99.90;;;;;;5062237;28;20466;-66
2022/05/01 16:19:06;;;;;;;20.13;13.02;;;15.80;99.90;;;;;;5069181;28;20036;-65
2022/05/01 16:21:55;;;;;;;21.70;11.50;;;15.80;99.90;;;;;;5066823;28;20147;-64
2022/05/01 16:24:29;;;;;;;19.50;14.15;;;15.80;99.90;;;;;;5064929;28;20035;-63
2022/05/01 16:27:02;;;;;;;25.40;14.57;;;15.70;99.90;;;;;;5068632;28;20047;-64
2022/05/01 16:29:33;;;;;;;27.77;16.10;;;15.70;99.90;;;;;;5069682;28;20033;-65
2022/05/01 16:32:18;;;;;;;20.58;14.90;;;15.70;99.90;;;;;;5069658;28;20016;-62
2022/05/01 16:34:57;;;;;;;18.42;12.88;;;15.60;99.90;;;;;;5058881;28;20081;-64
2022/05/01 16:37:26;;;;;;;20.38;13.57;;;15.60;99.90;;;;;;5064764;28;20074;-62
2022/05/01 16:39:53;;;;;;;22.30;13.50;;;15.50;99.90;;;;;;5066664;28;20036;-62
2022/05/01 16:42:20;;;;;;;17.40;12.80;;;15.50;99.90;;;;;;5062266;28;20339;-64
2022/05/01 16:44:45;;;;;;;20.10;12.75;;;15.50;99.90;;;;;;5056871;28;20025;-65
2022/05/01 16:47:11;;;;;;;20.00;12.75;;;15.40;99.90;;;;;;5063324;28;20512;-65
2022/05/01 16:49:38;;;;;;;19.50;12.82;;;15.50;99.90;;;;;;5067478;28;20829;-62
2022/05/01 16:52:04;;;;;;;28.20;13.48;;;15.50;99.90;;;;;;5063099;28;20032;-64
2022/05/01 16:54:34;;;;;;;16.67;11.38;;;15.50;99.90;;;;;;5060685;28;20044;-65
2022/05/01 16:57:00;;;;;;;20.80;11.35;;;15.50;99.90;;;;;;5061319;28;20063;-65
2022/05/01 16:59:28;;;;;;;18.25;11.40;;;15.50;99.90;;;;;;5061286;28;20503;-65
2022/05/01 17:01:59;;;;;;;17.02;11.07;;;15.60;99.90;;;;;;5063448;28;20056;-66
2022/05/01 17:04:34;;;;;;;17.33;12.43;;;15.60;99.90;;;;;;5064191;28;20124;-65
2022/05/01 17:07:32;;;;;;;21.20;12.00;;;15.50;99.90;;;;;;5062218;28;20135;-64
2022/05/01 17:10:19;;;;;;;20.98;11.52;;;15.60;99.90;;;;;;5059045;28;20097;-62
2022/05/01 17:13:10;;;;;;;17.73;12.00;;;15.60;99.90;;;;;;5062157;28;20027;-63
2022/05/01 17:15:37;;;;;;;15.05;10.43;;;15.60;99.90;;;;;;5059947;28;20033;-65
2022/05/01 17:18:15;;;;;;;16.73;10.68;;;15.60;99.90;;;;;;5062090;28;20017;-65
2022/05/01 17:20:46;;;;;;;19.02;11.55;;;15.50;99.90;;;;;;5063202;28;20094;-63
2022/05/01 17:23:21;;;;;;;18.27;11.68;;;15.50;99.90;;;;;;5061527;28;20495;-65
2022/05/01 17:25:56;;;;;;;17.23;10.93;;;15.50;99.90;;;;;;5064066;28;20021;-65
2022/05/01 17:28:26;;;;;;;18.08;10.43;;;15.50;99.90;;;;;;5065285;28;20474;-65
2022/05/01 17:30:59;;;;;;;18.38;11.95;;;15.50;99.90;;;;;;5064578;28;20025;-64
2022/05/01 17:33:30;;;;;;;16.63;11.55;;;15.60;99.90;;;;;;5063839;28;20040;-65
2022/05/01 17:35:59;;;;;;;18.20;11.52;;;15.40;99.90;;;;;;5066920;28;20044;-64
2022/05/01 17:38:27;;;;;;;18.98;10.85;;;15.40;99.90;;;;;;5067174;28;20071;-63
2022/05/01 17:40:53;;;;;;;16.00;10.40;;;15.40;99.90;;;;;;5065600;28;20198;-64
2022/05/01 17:43:27;;;;;;;17.00;11.15;;;15.40;99.90;;;;;;5063451;28;20360;-65
2022/05/01 17:45:54;;;;;;;17.98;10.45;;;15.50;99.90;;;;;;5068447;28;20155;-64
2022/05/01 17:48:22;;;;;;;14.98;10.43;;;15.50;99.90;;;;;;5071919;28;20036;-66
2022/05/01 17:50:50;;;;;;;15.52;11.85;;;15.60;99.90;;;;;;5072193;28;20021;-64
2022/05/01 17:53:24;;;;;;;15.45;10.95;;;15.50;99.90;;;;;;5071483;28;20021;-65
2022/05/01 17:55:51;;;;;;;;;;;15.50;99.90;;;;;;5073352;28;20116;-63
2022/05/01 17:58:18;;;;;;;15.00;10.52;;;15.50;99.90;;;;;;5065883;28;19909;-65
2022/05/01 18:00:55;;;;;;;18.27;10.98;;;15.50;99.90;;;;;;5065350;28;20805;-65
2022/05/01 18:03:40;;;;;;;18.85;11.52;;;15.40;99.90;;;;;;5069298;28;20383;-63
2022/05/01 18:12:26;;;;;;;14.57;10.48;;;15.20;99.90;;;;;;5066302;28;20090;-67
2022/05/01 18:15:30;;;;;;;18.42;10.82;;;15.10;99.90;;;;;;5065279;28;20025;-64
2022/05/01 18:18:02;;;;;;;19.35;11.32;;;15.10;99.90;;;;;;5069802;28;20090;-65
2022/05/01 18:20:31;;;;;;;21.20;11.00;;;15.10;99.90;;;;;;5061072;28;20033;-65
2022/05/01 18:23:13;;;;;;;21.10;10.50;;;15.10;99.90;;;;;;5066721;28;20039;-65
2022/05/01 18:26:09;;;;;;;16.05;10.88;;;15.10;99.90;;;;;;5064406;28;21323;-64
2022/05/01 18:32:12;;;;;;;16.55;11.18;;;15.00;99.90;;;;;;5064650;28;20058;-65
2022/05/01 18:34:58;;;;;;;16.30;11.05;;;14.80;99.90;;;;;;5043417;28;20470;-65
2022/05/01 18:37:34;;;;;;;18.63;11.55;;;14.80;99.90;;;;;;5067797;28;20020;-66
2022/05/01 18:40:14;;;;;;;15.80;10.55;;;14.80;99.90;;;;;;5065973;28;20021;-66
2022/05/01 18:42:41;;;;;;;18.20;10.82;;;14.70;99.90;;;;;;5067471;28;20043;-65
2022/05/01 18:45:12;;;;;;;20.60;10.93;;;14.70;99.90;;;;;;5063908;28;20905;-66
2022/05/01 18:47:43;;;;;;;16.85;11.23;;;14.70;99.90;;;;;;5060377;28;20032;-66
2022/05/01 18:50:10;;;;;;;16.05;10.57;;;14.60;99.90;;;;;;5069641;28;20173;-67
2022/05/01 18:52:38;;;;;;;15.27;11.10;;;14.60;99.90;;;;;;5061850;28;20545;-66
2022/05/01 18:55:07;;;;;;;18.20;12.10;;;14.60;99.90;;;;;;5059746;28;20032;-66
2022/05/01 18:57:33;;;;;;;17.60;11.00;;;14.50;99.90;;;;;;5059990;28;20032;-66
2022/05/01 19:00:00;;;;;;;24.25;12.75;;;14.40;99.90;;;;;;5059742;28;20029;-64
2022/05/01 19:02:26;;;;;;;25.08;12.32;;;14.40;99.90;;;;;;5064454;28;20550;-67
2022/05/01 19:04:51;;;;;;;18.50;10.40;;;14.40;99.90;;;;;;5066911;28;20032;-65
2022/05/01 19:07:43;;;;;;;21.00;11.18;;;14.30;99.90;;;;;;5068139;28;20902;-65
2022/05/01 19:10:32;;;;;;;17.98;11.77;;;14.30;99.90;;;;;;5061035;28;20024;-66
2022/05/01 19:13:15;;;;;;;18.98;10.95;;;14.20;99.90;;;;;;5056757;28;20032;-66
2022/05/01 19:15:49;;;;;;;17.52;11.13;;;14.20;99.90;;;;;;5061837;28;20036;-67
2022/05/01 19:18:24;;;;;;;18.20;11.73;;;14.20;99.90;;;;;;5057430;28;20529;-64
2022/05/01 19:21:22;;;;;;;15.48;10.50;;;14.20;99.90;;;;;;5056392;28;20024;-66
2022/05/01 19:27:32;;;;;;;;;;;14.20;99.90;;;;;;5060693;28;20122;-63
2022/05/01 19:30:08;;;;;;;15.95;11.27;;;14.20;99.90;;;;;;5060279;28;19923;-64
2022/05/01 19:32:52;;;;;;;24.48;12.38;;;14.20;99.90;;;;;;5058512;28;20347;-65
2022/05/01 19:35:20;;;;;;;25.08;12.25;;;14.10;99.90;;;;;;5057776;28;20383;-63
2022/05/01 19:37:53;;;;;;;21.42;12.05;;;14.10;99.90;;;;;;5064528;28;20020;-65
2022/05/01 19:40:40;;;;;;;19.50;11.95;;;14.10;99.90;;;;;;5061002;28;20028;-62
2022/05/01 19:43:39;;;;;;;18.50;10.52;;;14.00;99.90;;;;;;5066104;28;20112;-63
2022/05/01 19:46:32;;;;;;;19.55;11.10;;;14.00;99.90;;;;;;5057420;28;20533;-65
